第九屆(2018)北區豐盛人生健樂長跑賽
9 Dec 2018 Sunday - Temperature: 12.7C Humidity: 82%
10km
組別名稱 賽程總名次 組別名次 號碼布編號 中文姓名 英文姓名 大會時間
RaceCatNameChi RkOverall RkCat Bib NameChi NameEng OfficialTime
10公里公開組(女) 40 1 2007 梁樂文 Leung Lok Man  00:45:14 
10公里公開組(女) 43 2 2002 梁詠湞 Leung Wing Ching  00:45:39 
10公里公開組(女) 75 3 2029 曾惠詩 Tsang Wai Sze  00:47:48 
10公里公開組(女) 81 4 2001 蘇愷晴 So Hoi Ching  00:48:17 
10公里公開組(女) 91 5 2009 廖奕雯 Liu Yik Man  00:49:12 
10公里公開組(女) 97 6 2037 湯健雯 Tong Kin Man  00:49:34 
10公里公開組(女) 135 7 2031 黃樂兒 Wong Lok Yi  00:52:11 
10公里公開組(女) 136 8 2034 鄭伊婷 Cheng Yi Ting  00:52:13 
10公里公開組(女) 160 9 2011 黃家瑜 Wong Ka Yu  00:53:22 
10公里公開組(女) 189 10 2035 阮麗珊 Yuen Lai Shan  00:54:42 
10公里公開組(女) 194 11 2022 黃鈺喻 Wong Yuk Yu  00:54:55 
10公里公開組(女) 216 12 2030 彭慧瑩 Pang Wai Ying  00:55:45 
10公里公開組(女) 219 13 2019 林曉丹 Lam Hiu Tan  00:55:48 
10公里公開組(女) 220 14 2014 周綺華 Chow Yee Wa  00:55:49 
10公里公開組(女) 287 15 2004 李小華 Li Siu Wa Rosanna  00:59:11 
10公里公開組(女) 292 16 2016 陳嘉恩 Chan Ka Yan  00:59:26 
10公里公開組(女) 296 17 2010 潘芷晴 Pun Tsz Ching  00:59:38 
10公里公開組(女) 299 18 2028 何詠雯 Ho Wing Man   00:59:40 
10公里公開組(女) 315 19 2033 鄧安妮 Tang On Nei  01:00:41 
10公里公開組(女) 344 20 2005 方姵之 Fong Pui Chi  01:02:10 
10公里公開組(女) 346 21 2032 鄭芊淳 Cheng Chin Shun  01:02:21 
10公里公開組(女) 401 22 2008 梁希文 Leung Hei Man  01:06:32 
10公里公開組(女) 426 23 2023 邱傲怡 Yau Ngo Yee  01:09:31 
10公里公開組(女) 427 24 2018 涂麗漩 To Lai Suen  01:09:32 
10公里公開組(女) 434 25 2015 何汶欣 Ho Man Yan  01:10:10 
10公里公開組(女) 475 26 2013 郭敏儀 Kwok Man Yee  01:13:56 
10公里公開組(女) 476 27 2012 鄺仲恩 Kwong Chung Yan  01:14:07 
10公里公開組(女) 477 28 2026 葉少偉 Ye Shaowei  01:14:12 
10公里公開組(女) 496 29 2003 蘇麗兒 So Lai Yee  01:16:39 
10公里公開組(女) 497 30 2006 黃施華 Wong See Wa Sara  01:16:39 
10公里公開組(女) 500 31 2027 葉巧嬋 Ye Qiaochun  01:16:48 
10公里公開組(女) 505 32 2020 陳佩瑚 Chan Pui Wu  01:17:16 
10公里公開組(女) 563 33 2025 葉桂珍 Yip Kwai Chun  01:27:11 
10公里公開組(男) 1 1 1044 黃啓樂 Wong Kai Lok  00:34:37 
10公里公開組(男) 6 2 1019 蘇鎮烽 So Chun Fung  00:37:07 
10公里公開組(男) 12 3 1005 劉頌文 Lau Chung Man  00:39:11 
10公里公開組(男) 17 4 1036 周柏澄 Chau Pak Ching Patrick  00:41:14 
10公里公開組(男) 26 5 1022 劉坤林 Lau Kwan Lam Angus  00:43:08 
10公里公開組(男) 28 6 1074 杜榮庭 TO Wing-ting   00:43:27 
10公里公開組(男) 31 7 1027 劉鎮偉 Lau Chun Wai  00:43:46 
10公里公開組(男) 33 8 1046 曾文蔚 Tsang Man Wai  00:43:52 
10公里公開組(男) 37 9 1007 李浩堃 LEE Ho Kwan  00:44:44 
10公里公開組(男) 48 10 1030 鄧展堂 Tang Chin Tong  00:46:05 
10公里公開組(男) 58 11 1059 梁建安 Leung Kin On  00:46:54 
10公里公開組(男) 72 12 1008 李柱坤 Lee Chu Kwan  00:47:47 
10公里公開組(男) 95 13 1077 龍華東 LUNG Wah-tung  00:49:31 
10公里公開組(男) 96 14 1003 陳達華 Chan Tak Wah  00:49:32 
10公里公開組(男) 98 15 1047 鄧秉基 Tang Bing Kay Gary  00:49:48 
10公里公開組(男) 102 16 1041 鄭浩川 Cheng Ho Chuen   00:49:59 
10公里公開組(男) 104 17 1050 向震 XZANG ZHEN  00:50:03 
10公里公開組(男) 108 18 1040 何偉龍 Ho Wai Ling  00:50:14 
10公里公開組(男) 132 19 1035 蔣敬倫 Cheung King Lun  00:52:05 
10公里公開組(男) 154 20 1063  鄧子揚 TANG Tsz-yeung  00:53:10 
10公里公開組(男) 165 21 1006 溫滿培 Wan Mun Pui  00:53:31 
10公里公開組(男) 174 22 1076 李焯光 LI Cheuk kwong  00:54:04 
10公里公開組(男) 182 23 1049 陳文楓 Chan Man Fung  00:54:23 
10公里公開組(男) 187 24 1009 廖振驅 Liu Chun Kui  00:54:34 
10公里公開組(男) 188 25 1072 何友承  HO Yau-shing  00:54:41 
10公里公開組(男) 193 26 1073 林子豪 LAM Tsz-ho  00:54:51 
10公里公開組(男) 195 27 1042 鄭以俊 Cheng Yee Chun  00:54:57 
10公里公開組(男) 208 28 1079 蕭啟華 Siu Kai Wa  00:55:30 
10公里公開組(男) 217 29 1034 余進榮 Yu Chun Wing  00:55:47 
10公里公開組(男) 233 30 1001 姚錦華 Yiu Kam Wah  00:56:16 
10公里公開組(男) 238 31 1020 饒敏智 Yiu Man Chi  00:56:23 
10公里公開組(男) 251 32 1033 范子謙 Fan Tse Him  00:57:03 
10公里公開組(男) 256 33 1070 韓立輝 HON Lap-fai  00:57:16 
10公里公開組(男) 262 34 1017 鄧子峯 Tang Tsz Fung  00:57:54 
10公里公開組(男) 271 35 1016 何樹基 Ho Shu Kei  00:58:30 
10公里公開組(男) 281 36 1064 呂義奎 LUI Yi-fui   00:58:59 
10公里公開組(男) 282 37 1015 鄺勉樂 Kwong Min Lok  00:58:59 
10公里公開組(男) 294 38 1062 胡駿樂 Woo Chun Lok  00:59:35 
10公里公開組(男) 300 39 1039 鄧思樂 Tang Sze Lok Marco  00:59:41 
10公里公開組(男) 302 40 1004 車家棟 Cher Ka Tung  00:59:50 
10公里公開組(男) 305 41 1060 李祥輝 Lee Cheung Fai Jonathan  01:00:03 
10公里公開組(男) 320 42 1061 鄧栢熹 Tang Pak Hei  01:01:04 
10公里公開組(男) 322 43 1024 胡仲良 Michael Wu  01:01:07 
10公里公開組(男) 324 44 1013 曾文昌 Tsang Man Cheong  01:01:09 
10公里公開組(男) 328 45 1038 潘建安 Poon Kin On  01:01:22 
10公里公開組(男) 333 46 1054 韓達森 Han Dason  01:01:40 
10公里公開組(男) 335 47 1011 方俊逸 Fong Jun Ya  01:01:42 
10公里公開組(男) 342 48 1068 李文鋒 LI Man-fung   01:02:06 
10公里公開組(男) 348 49 1071 陳文超 CHAN Man-chiu   01:02:29 
10公里公開組(男) 372 50 1021 鄒瑞顏 Chow Sui Ngan  01:03:56 
10公里公開組(男) 377 51 1018 鄧子宏 Tang Tsz Wang  01:04:03 
10公里公開組(男) 389 52 1025 林文希 Lam Man Hei  01:05:04 
10公里公開組(男) 393 53 1002 姚賽欣 Yiu Choi Yan  01:05:45 
10公里公開組(男) 398 54 1066 鄭俊山 CHENG Chun-shun   01:06:20 
10公里公開組(男) 405 55 1014 歐彥宗 Au Yin Chung  01:07:01 
10公里公開組(男) 414 56 1045 林國裕 Lam Kwok Yu  01:08:16 
10公里公開組(男) 417 57 1055 劉進杰 Lau Chun Kit  01:08:37 
10公里公開組(男) 424 58 1069 歐陽子俊  AU YEUNG Tsz-chun  01:09:20 
10公里公開組(男) 444 59 1065 李浩甡 LEE Ho-sang  01:10:43 
10公里公開組(男) 449 60 1056 甘子聰 Kam Tsz Chung  01:11:34 
10公里公開組(男) 461 61 1051 麥嘉豪 Mak Ka Ho  01:12:50 
10公里公開組(男) 502 62 1053 甘兆山 Kam Siu Shan  01:17:10 
10公里公開組(男) 506 63 1078 馮家倫 Fung Ka Lun  01:17:30 
10公里公開組(男) 507 64 1048 傅立信 Fu Lap Shun  01:17:31 
10公里公開組(男) 516 65 1031   Ng Kin Ning  01:19:42 
10公里公開組(男) 517 66 1010 李善于 Li Sin Yu  01:19:52 
10公里公開組(男) 562 67 1057 黃吉昌 Huang Ji Chang  01:27:08 
10公里公開組(男) 582 68 1012 黃廷熙 Wong Ting Hei  01:35:23 
10公里先進組(女) 46 1 4049 殷綺玲 ERAMELA ELAINE  00:45:50 
10公里先進組(女) 71 2 4026 詹綺妮 Chim Yee Ni  00:47:42 
10公里先進組(女) 105 3 4036 馮惠群 Fung Wai Kwan  00:50:04 
10公里先進組(女) 114 4 4021 曾素婷 Tsang So Ting  00:50:50 
10公里先進組(女) 138 5 4050 黎翠珊 Lai Tsui Shan  00:52:15 
10公里先進組(女) 161 6 4024 譚彩萍 Tam Choi Ping  00:53:23 
10公里先進組(女) 170 7 4005 石彩雲 Shek Choi Wan  00:53:45 
10公里先進組(女) 231 8 4034 柯慈惜 Or Chi Sik  00:56:15 
10公里先進組(女) 239 9 4030   ZHANG XIAN TAO  00:56:25 
10公里先進組(女) 244 10 4018 陳倩盈 Chan Sin Ying  00:56:43 
10公里先進組(女) 246 11 4031 易桂蘭 Yik Kwai Lan  00:56:45 
10公里先進組(女) 250 12 4075 彭婉翠 Pang Yuen Chui  00:56:57 
10公里先進組(女) 263 13 4071 馮琳 Feng Lin  00:57:55 
10公里先進組(女) 268 14 4064 余愛媚 Yu Amy  00:58:18 
10公里先進組(女) 270 15 4033 鄭文香 Cheng Man Heung  00:58:29 
10公里先進組(女) 272 16 4057 唐伊莉 Tong Yee Lei  00:58:31 
10公里先進組(女) 286 17 4004 李思敏 Li Sze Man  00:59:10 
10公里先進組(女) 288 18 4017 彭慧儀 Pang Wai Yee  00:59:16 
10公里先進組(女) 293 19 4001 李沛薇 Lee Pui Mei  00:59:34 
10公里先進組(女) 304 20 4016 彭慧玲 Pang Wai Ling  00:59:54 
10公里先進組(女) 312 21 4023 劉順開 Lau Shun Hoi  01:00:29 
10公里先進組(女) 314 22 4044 吳小麗 Ng Siu Lai  01:00:35 
10公里先進組(女) 323 23 4020 羅小明 Lo Siu Ming  01:01:08 
10公里先進組(女) 343 24 4011 呂曉勤 Lui Yiu Kan Hilda  01:02:10 
10公里先進組(女) 353 25 4080 葉裕菁 Yip Yue Ching  01:02:50 
10公里先進組(女) 354 26 4022 阮春春 Yuen Chun Chun  01:02:52 
10公里先進組(女) 356 27 4052 侯綺薇 Hau Yee Mei  01:02:55 
10公里先進組(女) 357 28 4002 方惠玲 Fong Wai Ling  01:02:56 
10公里先進組(女) 364 29 4069 許彩幼 Hui Choi Yau  01:03:32 
10公里先進組(女) 365 30 4084 宋翠雲 Sung Chui Wan  01:03:38 
10公里先進組(女) 368 31 4055 黎嘉琪 Lai Kar Ki Katie  01:03:41 
10公里先進組(女) 369 32 4066 石麗雲 Shek Lai Wan  01:03:42 
10公里先進組(女) 371 33 4010 溫房嬌 Wan Fong Kiu  01:03:55 
10公里先進組(女) 374 34 4067 郭遲鳳 Kwok Chi Fung  01:03:59 
10公里先進組(女) 375 35 4038 蕭思敏 Siu Sze Man  01:04:01 
10公里先進組(女) 376 36 4032 沈燕玲 Shum Yin Ling  01:04:02 
10公里先進組(女) 384 37 4037 陳玉華 Chan Yuk Wah  01:04:27 
10公里先進組(女) 385 38 4073 阮穎瑜 Un Wing Yue  01:04:39 
10公里先進組(女) 387 39 4070 張紅娟 Cheung Hung Kuen  01:04:55 
10公里先進組(女) 392 40 4007 李美婷 Li Mei Ting Recina  01:05:18 
10公里先進組(女) 394 41 4065 蔡惠蘭 Choi Wai Lan  01:05:47 
10公里先進組(女) 428 42 4013 莊秀玲 Chong Sau Ling  01:09:37 
10公里先進組(女) 436 43 4063 陳鳳珠 Chan Fung Chu  01:10:20 
10公里先進組(女) 440 44 4040 梁嘉汶 Leung Ka Man  01:10:29 
10公里先進組(女) 443 45 4041 王永新 Wong Wing Sun  01:10:42 
10公里先進組(女) 458 46 4060 藍少英 Lam Siu Ying Elaine  01:12:32 
10公里先進組(女) 460 47 4082 陳韵陶 Chan Germaine  01:12:37 
10公里先進組(女) 468 48 4068 陳嘉欣 Chan Ka Yan  01:13:11 
10公里先進組(女) 471 49 4083 岑美鳳 Sum Mei Fung  01:13:26 
10公里先進組(女) 473 50 4056 Cheung Yin Fong  01:13:43 
10公里先進組(女) 474 51 4062 楊慧良 Yeung Wai Leung  01:13:52 
10公里先進組(女) 478 52 4012 黃靜茵 Wong Ching Yan  01:14:16 
10公里先進組(女) 484 53 4047 梁琼芝 Leung King Chi  01:14:40 
10公里先進組(女) 488 54 4058 陳素冰 Chan So Ping  01:15:02 
10公里先進組(女) 492 55 4046 黃美愛 Wong Mei Oi  01:16:25 
10公里先進組(女) 504 56 4072 林紫圓 Lam Tsz Yuen  01:17:16 
10公里先進組(女) 511 57 4035 高潤媚 Ko Yun Mei  01:17:48 
10公里先進組(女) 513 58 4054 侯綺琪 Hau Yee Ki  01:18:30 
10公里先進組(女) 520 59 4051 梁小珍 Leung SIU Chun Dilys  01:20:40 
10公里先進組(女) 535 60 4061 蔡麗嫦 Choy Lai Sheung  01:21:19 
10公里先進組(女) 545 61 4076 余偉雲 Yu Wai Wan Winnie  01:23:49 
10公里先進組(女) 555 62 4009 潘綺華 Poon Yi Wah  01:26:39 
10公里先進組(女) 556 63 4081 賴玉珍 Lai Yuk Chun  01:26:39 
10公里先進組(女) 580 64 4043 詹文娟 Tsim Man Kuen  01:34:50 
10公里先進組(男) 13 1 3238 梁國成 Leung Kwok Shing  00:39:47 
10公里先進組(男) 18 2 3004 侯耀武 Hau Yiu Mo  00:41:28 
10公里先進組(男) 19 3 3150 梁國偉 Leung Kwok Wai  00:41:31 
10公里先進組(男) 21 4 3073 侯傑有 Hau Kit Yau  00:42:13 
10公里先進組(男) 22 5 3272 趙欣    00:42:15 
10公里先進組(男) 24 6 3172 蘇偉基 So Wai Kei  00:42:28 
10公里先進組(男) 25 7 3153 吳偉文 Ng Wai Man Raymond  00:42:28 
10公里先進組(男) 27 8 3146 郭志偉 Kwok Che Wai  00:43:19 
10公里先進組(男) 29 9 3215 劉健鵬 Lau Kin Pang  00:43:29 
10公里先進組(男) 34 10 3159 鍾智輝 Chung Chi Fai  00:44:04 
10公里先進組(男) 35 11 3084 李明亮 Li Ming Leung  00:44:25 
10公里先進組(男) 36 12 3138 葉偉 Yip Wai Hang  00:44:28 
10公里先進組(男) 41 13 3121 梁寶明 Liang Po Ming  00:45:18 
10公里先進組(男) 42 14 3158 李志新 Lee Chi Sun  00:45:23 
10公里先進組(男) 44 15 3006 鄧國禧 Tang Kwok Hei  00:45:42 
10公里先進組(男) 45 16 3085 邱國亮 Yau Kwok Leung  00:45:44 
10公里先進組(男) 47 17 3071 李展鴻 Lee Chin Hung  00:46:04 
10公里先進組(男) 49 18 3193 陳森田 Chan Sum Tin  00:46:08 
10公里先進組(男) 50 19 3162 梁安 Leung On  00:46:13 
10公里先進組(男) 51 20 3119 李卓斌 Lee Cheuk Pan  00:46:13 
10公里先進組(男) 56 21 3233 周毅銘 Chau Ngai Ming   00:46:41 
10公里先進組(男) 59 22 3107 李昌運 Lee Cheong Wan  00:46:56 
10公里先進組(男) 60 23 3030 林國威 Lam Kwok Wai  00:47:03 
10公里先進組(男) 63 24 3008 劉國華 Lau Kwok Wah  00:47:08 
10公里先進組(男) 64 25 3270 袁嘉諾 Yuen Ka Lok  00:47:10 
10公里先進組(男) 66 26 3106 羅逸平 Law Yat Ping  00:47:16 
10公里先進組(男) 67 27 3261 陳志新 Chan Chi Sun  00:47:20 
10公里先進組(男) 70 28 3257 林萬琪 Lam Man Kei  00:47:35 
10公里先進組(男) 74 29 3260 彭家耀 Pang Ka Yiu  00:47:47 
10公里先進組(男) 76 30 3127 廖龍偉 Liu Lung Wai  00:47:48 
10公里先進組(男) 77 31 3123 林偉雄 Lam Wai Hung  00:47:50 
10公里先進組(男) 78 32 3007 簡子輝 Kan Tze Fai  00:47:54 
10公里先進組(男) 79 33 3137 葉偉康 Yip Wai Hong  00:48:08 
10公里先進組(男) 82 34 3044 郭志明 Kwok Chi Ming  00:48:21 
10公里先進組(男) 83 35 3204 石錦新 Shek Kam Sun Joe  00:48:26 
10公里先進組(男) 84 36 3161 陳玉卿 Chan Yuk Hing Alan  00:48:28 
10公里先進組(男) 86 37 3160 丘𡚒 Yau Fan  00:48:44 
10公里先進組(男) 87 38 3169 劉志堅 Lau Chi Kien  00:48:55 
10公里先進組(男) 88 39 3112 邵礎翹 Shiu Chor Kiu  00:49:05 
10公里先進組(男) 89 40 3196 張秋明 Cheung Chau Ming  00:49:08 
10公里先進組(男) 92 41 3116 梁玉祺 Leung Yuk Ki  00:49:17 
10公里先進組(男) 93 42 3209 鄭毅敏 Cheng Ngai Man  00:49:24 
10公里先進組(男) 94 43 3043 李順天 Li Shun Tin  00:49:29 
10公里先進組(男) 99 44 3198 伍漢興 Ng Hon Hing  00:49:49 
10公里先進組(男) 101 45 3179 葉瑞良 Yip Shui Leung  00:49:58 
10公里先進組(男) 103 46 3010 蔡國城 Choy Kwok Sing  00:50:02 
10公里先進組(男) 106 47 3055 蕭又豪 XIAO YOUHAO  00:50:04 
10公里先進組(男) 111 48 3113 何福年 Ho Fuk Lin Fully  00:50:39 
10公里先進組(男) 112 49 3183 陳家偉 Chan Ka Wai Jimmy  00:50:43 
10公里先進組(男) 113 50 3174 梁志強 Leung Chi Keung  00:50:49 
10公里先進組(男) 115 51 3252 何安榮 Ho On Wing  00:50:52 
10公里先進組(男) 116 52 3079 余偉雄 Yu Wai Hung  00:51:02 
10公里先進組(男) 117 53 3156 羅真雄 Law Chun Hung  00:51:08 
10公里先進組(男) 118 54 3091 蔡得榮 Choi Tak Wing  00:51:15 
10公里先進組(男) 121 55 3052 徐小興 Tsui Siu Hing  00:51:29 
10公里先進組(男) 123 56 3026 黃金培 Wong Kam Pui  00:51:47 
10公里先進組(男) 124 57 3170 梁紹輝 Leung Siu Fai  00:51:48 
10公里先進組(男) 125 58 3228 張敬良 Cheung King Leung  00:51:51 
10公里先進組(男) 126 59 3249 吳志豪 Ng Chi Ho  00:51:56 
10公里先進組(男) 127 60 3077 黎浩然 Lai Ho Yin  00:51:57 
10公里先進組(男) 128 61 3003 李旭輝 Lee Yuk Fai  00:51:58 
10公里先進組(男) 129 62 3139 蘇忠立 So Chung Lap  00:52:00 
10公里先進組(男) 130 63 3015 李文輝 Lee Man Fai  00:52:04 
10公里先進組(男) 131 64 3140 馮澤文 Fung Chak Man  00:52:04 
10公里先進組(男) 133 65 3181 張克勤 Cheung Hak Kan Ken  00:52:07 
10公里先進組(男) 134 66 3224 賴漢邦 Lai Hon Pong  00:52:08 
10公里先進組(男) 137 67 3191 倪友基 Ngai Yau Ki  00:52:15 
10公里先進組(男) 139 68 3230 陳景明 Chan King Ming  00:52:15 
10公里先進組(男) 140 69 3115 黎志昌 Lai Chi Cheong  00:52:16 
10公里先進組(男) 142 70 3081 陳永初 Chan Wing Chor  00:52:21 
10公里先進組(男) 144 71 3263 潘逸明 Poon Yat Ming  00:52:30 
10公里先進組(男) 145 72 3025 姚賽帆 Yiu Choi Fan  00:52:31 
10公里先進組(男) 146 73 3028 何鈺佳 Ho Yuk Kai  00:52:31 
10公里先進組(男) 147 74 3105 陳賢俠 Chan Yin Hop  00:52:33 
10公里先進組(男) 148 75 3226 李嘉麒 Lee Ka Ki  00:52:36 
10公里先進組(男) 153 76 3166 鍾德榮 Chung Tak Wing  00:53:08 
10公里先進組(男) 156 77 3128 陳駿偉 Chan Chun Wai  00:53:13 
10公里先進組(男) 157 78 3049 Lee Kwok Fai  00:53:16 
10公里先進組(男) 158 79 3250 黎坤耀 Lai Kwan Yiu  00:53:20 
10公里先進組(男) 162 80 3032 林英偉 Lam Ying Wai  00:53:26 
10公里先進組(男) 168 81 3241 李南文 LI Nam-man   00:53:41 
10公里先進組(男) 169 82 3178 文耀斌 Man Yiu Pan  00:53:45 
10公里先進組(男) 171 83 3254 楊國基 Yeung Kwok Kee Wilson  00:53:46 
10公里先進組(男) 172 84 3066 陳鎮邦 Chan Chun Pong  00:53:47 
10公里先進組(男) 175 85 3098 丘建和 Yau Kin Wo  00:54:06 
10公里先進組(男) 178 86 3184 區泳河 Au Wing Ho  00:54:15 
10公里先進組(男) 179 87 3147 余漢城 Yu Hon Sing  00:54:17 
10公里先進組(男) 180 88 3099 盧美乾 Lo Mei Kuen  00:54:17 
10公里先進組(男) 181 89 3176 姜智森 Keung Chi Sam  00:54:23 
10公里先進組(男) 184 90 3231 季禮聲 Chee Lai Sing  00:54:29 
10公里先進組(男) 192 91 3222 葉育強 Yip Yuk Keung  00:54:50 
10公里先進組(男) 197 92 3080 張飛 Cheung Fai  00:55:01 
10公里先進組(男) 198 93 3013 黃錫泉 Wong Sik Chuen  00:55:02 
10公里先進組(男) 201 94 3205 楊崇海 Yeung Shun Hoi  00:55:09 
10公里先進組(男) 202 95 3267 廖慶新 Liu Hing San  00:55:13 
10公里先進組(男) 203 96 3069 黃榮輝 Wong Wing Fai  00:55:16 
10公里先進組(男) 207 97 3078 鄧偉明 Tang Wai Ming  00:55:28 
10公里先進組(男) 209 98 3093 文國榮 Man Kwok Wing  00:55:31 
10公里先進組(男) 211 99 3076 王劍明 Wong Kim Ming  00:55:36 
10公里先進組(男) 212 100 3074 侯志良 Hau Chi Leung  00:55:36 
10公里先進組(男) 213 101 3141 丘學頴 Yau Hok Wing  00:55:40 
10公里先進組(男) 214 102 3056 關健林 Kwan Kin Lam  00:55:40 
10公里先進組(男) 218 103 3130 郭鵬飛 Kwok Peng Fei Platini  00:55:47 
10公里先進組(男) 221 104 3216 梁寶華 Leung Po Wah  00:55:50 
10公里先進組(男) 222 105 3218 李向榮 Lee Hong Wing  00:55:53 
10公里先進組(男) 225 106 3195 黃志兒 Wong Chi Yee  00:55:55 
10公里先進組(男) 226 107 3206 歐偉健 Au Wai Kin  00:55:57 
10公里先進組(男) 227 108 3242 黃和隆 WONG Wo-lung   00:56:00 
10公里先進組(男) 228 109 3243 張燦海 CHEUNG Charn hoi   00:56:00 
10公里先進組(男) 229 110 3114 顏又奇 Kao Yau Ki  00:56:03 
10公里先進組(男) 230 111 3011 陳海昌 Chan Hoi Cheong  00:56:09 
10公里先進組(男) 234 112 3225 余文輝 Yu Man Fai  00:56:17 
10公里先進組(男) 236 113 3155 羅偉俊 Law Wai Chun  00:56:22 
10公里先進組(男) 237 114 3200 張福娣 Cheung Fook Tai  00:56:22 
10公里先進組(男) 241 115 3012 吳偉倫 Ng Wai Lun  00:56:32 
10公里先進組(男) 242 116 3227 雷振興 Lui Chun Hing  00:56:38 
10公里先進組(男) 243 117 3002 林傍水 Lam Pong Sui  00:56:40 
10公里先進組(男) 245 118 3104 林健誠 Lam Kin Shing  00:56:45 
10公里先進組(男) 247 119 3229 雷振添 Lui Chun Tim  00:56:46 
10公里先進組(男) 248 120 3036 陳偉升 Chan Wai Sing  00:56:50 
10公里先進組(男) 255 121 3017 何遠就 Ho Yuen Chau  00:57:14 
10公里先進組(男) 257 122 3171 葉漢華 Ip Hon Wah  00:57:40 
10公里先進組(男) 258 123 3194 沙慶文 Sha Hing Man  00:57:44 
10公里先進組(男) 259 124 3075 洪秋榮 Hung Chau Wing  00:57:45 
10公里先進組(男) 260 125 3009   Ng Ping Yu Perry  00:57:49 
10公里先進組(男) 264 126 3095 何有華 Ho Yau Wah  00:57:58 
10公里先進組(男) 265 127 3092 李惠貞 Li Wai Ching  00:58:01 
10公里先進組(男) 266 128 3187 胡文浩 Wu Man Ho  00:58:13 
10公里先進組(男) 267 129 3262 李志明 Lee Chi Ming  00:58:17 
10公里先進組(男) 269 130 3135 鍾港曾 Chung Kong Tsang  00:58:27 
10公里先進組(男) 274 131 3040 葉子恆 Yip Chi Hang Czeven  00:58:42 
10公里先進組(男) 275 132 3014 余智賢 Yu Chi Yin  00:58:44 
10公里先進組(男) 276 133 3186 陳松達 Chan Chung Tat  00:58:46 
10公里先進組(男) 278 134 3051 梁凱威 Leung Hoi Wai  00:58:49 
10公里先進組(男) 279 135 3018 魏國樑 Ngai Kwok Liang  00:58:54 
10公里先進組(男) 280 136 3039 李志權 Lee Chi Kuen  00:58:57 
10公里先進組(男) 285 137 3019 楊山 Yeung Shan  00:59:09 
10公里先進組(男) 289 138 3149 張偉倫 Cheung Wai Lun  00:59:17 
10公里先進組(男) 290 139 3020 包立群 Pao Lap Kwan  00:59:18 
10公里先進組(男) 295 140 3192 馬松光 Ma Chung Kwong  00:59:37 
10公里先進組(男) 301 141 3232 薛甘華 Sit Kam Wah  00:59:44 
10公里先進組(男) 303 142 3208 林勁豐 Edmond Lam  00:59:53 
10公里先進組(男) 306 143 3248 劉家業 LAU Ka-yip, Jerry  01:00:03 
10公里先進組(男) 307 144 3220 陳冠東 Chan Kwun Tung  01:00:08 
10公里先進組(男) 308 145 3244 李耀輝 LEE Yiu-Fai   01:00:10 
10公里先進組(男) 310 146 3094 李錦名 Lee Kam Ming  01:00:11 
10公里先進組(男) 313 147 3197 劉國雄 Lau Kwok Hung  01:00:35 
10公里先進組(男) 316 148 3041 張觀胜 Cheung Kwun Shing  01:00:46 
10公里先進組(男) 317 149 3063 柳瑞祥 Lau Sui Cheung Raymond  01:00:48 
10公里先進組(男) 318 150 3246 羅三娣 LAW Sam-tai  01:00:55 
10公里先進組(男) 319 151 3148 歐代銘 Au Toi Ming  01:01:01 
10公里先進組(男) 321 152 3087 茹錦添 Yu Kam Tim  01:01:07 
10公里先進組(男) 326 153 3108 吳光衡 Ng Kwong Hang Simon  01:01:17 
10公里先進組(男) 327 154 3259 馮榮昌 Fung Wing Cheong  01:01:20 
10公里先進組(男) 331 155 3165 雷得成 Lui Tak Shing  01:01:30 
10公里先進組(男) 332 156 3164 李強申 Li Keung Sun  01:01:31 
10公里先進組(男) 334 157 3065 胡焯昆 Woo Churk Kwan  01:01:41 
10公里先進組(男) 336 158 3168 羅礎健 Lo Chor Kin  01:01:44 
10公里先進組(男) 339 159 3245 何銘恩  HO Ming-yan  01:01:58 
10公里先進組(男) 341 160 3236 黃志清 Wong Chi Ching  01:02:01 
10公里先進組(男) 345 161 3033 陳河元 Chan Ho Yuen  01:02:14 
10公里先進組(男) 347 162 3101 陳榮波 Chan Wing Por  01:02:26 
10公里先進組(男) 350 163 3143 尹國雄 Wan Kwok Hung  01:02:34 
10公里先進組(男) 352 164 3117 陳桂明 Chan Kwai Ming  01:02:45 
10公里先進組(男) 355 165 3102 蘇煥章 So Woon Cheung  01:02:53 
10公里先進組(男) 358 166 3175 廖信雲 Liu Shun Wan  01:03:00 
10公里先進組(男) 360 167 3038 陳啟源 Chan Kai Yuen  01:03:19 
10公里先進組(男) 362 168 3120 梁享榮 Leung Heung Wing  01:03:27 
10公里先進組(男) 363 169 3211 黃耀光 Wong Yiu Kwong  01:03:32 
10公里先進組(男) 366 170 3001 伍佑牛 Ng Yau Ngau  01:03:38 
10公里先進組(男) 367 171 3189 程忠培 Ching Chung Pui  01:03:40 
10公里先進組(男) 373 172 3122 陳光平 Chan Kwong Ping  01:03:57 
10公里先進組(男) 380 173 3088 譚鏡淳 Tam Kang Shun  01:04:06 
10公里先進組(男) 383 174 3265 江志偉 Kong Chi Wai  01:04:22 
10公里先進組(男) 386 175 3021 李光洪 Li Kwong Hung  01:04:40 
10公里先進組(男) 388 176 3035 周永春 Chow Wing Chun  01:04:57 
10公里先進組(男) 391 177 3031 梁灼明 Leung Cheuk Ming Stephen  01:05:13 
10公里先進組(男) 395 178 3203 朱永良 Chu Wing Leung  01:05:54 
10公里先進組(男) 397 179 3045 方耀強 Fong Yiu Keung  01:06:10 
10公里先進組(男) 404 180 3068 曾德誠 Tsang Tak Shing  01:06:47 
10公里先進組(男) 407 181 3024 梁偉文 Leung Wai Man  01:07:15 
10公里先進組(男) 408 182 3235 袁令材 Yuen Ling Choi Leon  01:07:19 
10公里先進組(男) 412 183 3022 譚鑑聲 Tam Kam Sing  01:07:49 
10公里先進組(男) 413 184 3090 邱國良 Yau Kwok Leung  01:08:09 
10公里先進組(男) 415 185 3046 秦志強 Chun Chi Keung Walter  01:08:20 
10公里先進組(男) 416 186 3023 盧錦昌 Lo Kam Cheong  01:08:28 
10公里先進組(男) 418 187 3251 梁偉標 Ling Wai Bao  01:08:46 
10公里先進組(男) 420 188 3109 鄧宗漢 Tsang Chung Hon  01:09:05 
10公里先進組(男) 421 189 3083 陳沛成 Chan Pui Shing  01:09:06 
10公里先進組(男) 422 190 3269 姚銘 Yiu Ming  01:09:07 
10公里先進組(男) 425 191 3110 孫德信 Suen Tak Shun  01:09:22 
10公里先進組(男) 429 192 3060 陳志昌 Chan Chi Cheong  01:09:43 
10公里先進組(男) 430 193 3058 孫樹明 Suen Shu Ming  01:09:53 
10公里先進組(男) 435 194 3129 李偉傑 Lee Wai Kit  01:10:11 
10公里先進組(男) 437 195 3053 梁光宗 Leung Kwong Chung  01:10:23 
10公里先進組(男) 438 196 3154 何文勝 Ho Man Sing  01:10:23 
10公里先進組(男) 442 197 3037 葉啟智 Yip Kai Chi  01:10:39 
10公里先進組(男) 445 198 3089 楊汝銘 Yeung Yu Ming  01:10:44 
10公里先進組(男) 454 199 3132 曾天民 Tsang Tin Man  01:12:06 
10公里先進組(男) 455 200 3190 李惠標 Lee Wai Biu  01:12:12 
10公里先進組(男) 463 201 3234 趙洪興 Chiu Hung Hing  01:12:53 
10公里先進組(男) 464 202 3100 張志光 Cheung Chi Kwong  01:12:54 
10公里先進組(男) 465 203 3096 黃玉生 Wong Yuk Sang  01:12:55 
10公里先進組(男) 467 204 3042 劉錦才 Lau Kam Choi  01:13:09 
10公里先進組(男) 469 205 3212 葉永康 Yip Wing Hong  01:13:17 
10公里先進組(男) 470 206 3258 黃國樑 Wong Kwok Leung  01:13:25 
10公里先進組(男) 482 207 3142 李嘉榮 Lee Ka Wing  01:14:29 
10公里先進組(男) 486 208 3188 林貴華 Lam Kwai Wah  01:14:55 
10公里先進組(男) 487 209 3185 鄧耀堂 Tang Yiu Tong  01:15:02 
10公里先進組(男) 489 210 3054 黃志球 Wong Chi Kau  01:15:17 
10公里先進組(男) 490 211 3103 龐國偉 Pong Kwok Wai  01:15:33 
10公里先進組(男) 491 212 3253 黃醒福 `  01:15:39 
10公里先進組(男) 493 213 3163 胡立怡 Woo Lap Yee  01:16:25 
10公里先進組(男) 501 214 3059 吳文偉 Ng Man Wai  01:16:56 
10公里先進組(男) 508 215 3144 羅偉峰    01:17:34 
10公里先進組(男) 509 216 3180 郭偉康 Kwok Wai Hong  01:17:40 
10公里先進組(男) 510 217 3255 江月明 Kong Yuet Ming  01:17:45 
10公里先進組(男) 518 218 3173 黃宏滔 Wong Wang To  01:20:18 
10公里先進組(男) 519 219 3177 陳紹 Chan Shiu  01:20:40 
10公里先進組(男) 521 220 3223 曾廣忠 Tsang Kwong Chung  01:20:46 
10公里先進組(男) 533 221 3199 林益琳 Lam Yick Lam  01:21:15 
10公里先進組(男) 536 222 3124 黎家祿 Lai Ka Luk  01:21:36 
10公里先進組(男) 543 223 3047 杜冠雄 To Koon Hung  01:23:15 
10公里先進組(男) 546 224 3214 蕭耀池 Siu Yiu Chee  01:23:52 
10公里先進組(男) 547 225 3213 黎林潤 Lai Lam Yun  01:23:53 
10公里先進組(男) 551 226 3125 劉漢明 Lau Hon Ming  01:25:29 
10公里先進組(男) 560 227 3167 司徒國平 Szeto Kwok Ping  01:27:02 
10公里先進組(男) 561 228 3237 鄭光培 Cheng Kwong Pui  01:27:03 
10公里先進組(男) 567 229 3097 王國啟 Wong Kwok Kai  01:28:00 
10公里學生甲組(女) 150 1 6003 陳燊妍 Chan San In  00:52:52 
10公里學生甲組(女) 232 2 6042 劉嘉琪 Lau Ka Ki  00:56:16 
10公里學生甲組(女) 338 3 6044 蔡樂謠 Choy Lok Yiu  01:01:53 
10公里學生甲組(女) 378 4 6034 黃顯雅 WONG HIN NGA  01:04:04 
10公里學生甲組(女) 381 5 6037 彭素萍 PANG SO PING  01:04:06 
10公里學生甲組(女) 382 6 6036 鄒栩兒 CHOW HUI YEE  01:04:12 
10公里學生甲組(女) 419 7 6014 蘇詩敏 SO SZE MAN  01:08:55 
10公里學生甲組(女) 432 8 6041 劉靜彤 Lau Ching Tung  01:10:00 
10公里學生甲組(女) 433 9 6008 楊晴嘉 YEUNG CHING KA  01:10:03 
10公里學生甲組(女) 451 10 6007 黃思雲 WONG SZE WAN  01:12:00 
10公里學生甲組(女) 457 11 6005 林灝盈 LAM HO YING  01:12:31 
10公里學生甲組(女) 537 12 6016 楊曉晴 YEUNG HIU CHING  01:21:51 
10公里學生甲組(女) 538 13 6004 黎雅妍 LAI NGA YIN ALISON  01:22:47 
10公里學生甲組(女) 539 14 6018 林敏鈴 LAM MAN LING  01:22:48 
10公里學生甲組(女) 540 15 6039 胡甦慧 Wu So Wai  01:23:03 
10公里學生甲組(女) 541 16 6040 林筱婧 Lin Siu Ching  01:23:04 
10公里學生甲組(女) 557 17 6022 文嘉怡 MAN KA YEE  01:26:59 
10公里學生甲組(女) 558 18 6010 陳靜怡 CHAN CHING YI  01:27:00 
10公里學生甲組(女) 559 19 6015 王泳嫻 WONG WING HAN  01:27:01 
10公里學生甲組(女) 565 20 6029 劉詩月 LAU SZE YUET MOON  01:27:42 
10公里學生甲組(女) 568 21 6012 張安瑤 CHEUNG ON YIU  01:28:33 
10公里學生甲組(女) 569 22 6013 何嘉文 HO KA MAN  01:28:33 
10公里學生甲組(女) 570 23 6017 袁穎琳 YUEN WING LAM  01:28:34 
10公里學生甲組(女) 571 24 6023 黃詠妍 WON WING YIN  01:28:41 
10公里學生甲組(女) 572 25 6024 顏彩琳 YAN CHOI LAM  01:28:41 
10公里學生甲組(女) 573 26 6025 歐芯悅 AU SUM YUET  01:29:02 
10公里學生甲組(女) 577 27 6021 凌豪貽 LING HO I  01:31:47 
10公里學生甲組(女) 585 28 6009 歐陽恩 AU-YEUNG YAN  01:36:37 
10公里學生甲組(女) 586 29 6027 何樂妍 HE LOK IN  01:36:38 
10公里學生甲組(女) 587 30 6038 黃月淇 WONG YUET KEI  01:36:43 
10公里學生甲組(女) 588 31 6033 戴安翎 TAI ON LING  01:37:24 
10公里學生甲組(女) 589 32 6032 彭羡盈 PANG SIN YING  01:37:24 
10公里學生甲組(女) 590 33 6030 廖頴恩 LIU WING YAN  01:37:24 
10公里學生甲組(女) 591 34 6019 劉寶玲 LAU PO LING  01:40:51 
10公里學生甲組(女) 594 35 6028 何卓穎 HO CHEUK WING  01:48:47 
10公里學生甲組(女) 595 36 6031 馬穎茵 MA WING YAN  01:48:48 
10公里學生甲組(男) 4 1 5061 周浩朗 Chow Ho Long  00:36:04 
10公里學生甲組(男) 5 2 5002 姜偉洛 Keung Wai Lok  00:36:46 
10公里學生甲組(男) 8 3 5009 劉冠良 Lau Kwun Leung  00:37:15 
10公里學生甲組(男) 9 4 5012 陳家強 Chan Ka Keung  00:38:02 
10公里學生甲組(男) 14 5 5015 冼啟衡 Sin Kai Hang  00:40:22 
10公里學生甲組(男) 55 6 5048 周智明 Chow Chi Ming  00:46:37 
10公里學生甲組(男) 57 7 5043 申浩榮 Sun Ho Wing  00:46:46 
10公里學生甲組(男) 73 8 5044 陳卓祈 Chan Cheuk Ki  00:47:47 
10公里學生甲組(男) 80 9 5045 方亞政 Fong Ah Ching  00:48:15 
10公里學生甲組(男) 119 10 5041 鍾竣樺 CHUNG CHUN WA  00:51:17 
10公里學生甲組(男) 122 11 5016 冼兆瑋 Pang Siu Wai  00:51:30 
10公里學生甲組(男) 151 12 5039 吳梓僖 NG TSZ HEI  00:53:06 
10公里學生甲組(男) 155 13 5049 潘家聰 PUN KA CHUNG   00:53:12 
10公里學生甲組(男) 173 14 5047 李永然 Lee Wing Yin  00:53:56 
10公里學生甲組(男) 176 15 5021 魏朗天 NGAI LONG TIN  00:54:10 
10公里學生甲組(男) 177 16 5019 鄧詠禧 TANG WING HEI  00:54:10 
10公里學生甲組(男) 199 17 5028 鄭嘉輝 CHENG KA FAI  00:55:02 
10公里學生甲組(男) 200 18 5005 麥嘉熙 Mak Ka Hay  00:55:06 
10公里學生甲組(男) 223 19 5068 李浚銘 Lee Chun Ming  00:55:53 
10公里學生甲組(男) 224 20 5067 林可豐 Lam Ho Fung  00:55:54 
10公里學生甲組(男) 311 21 5046 李新偉 Lee San Wai  01:00:22 
10公里學生甲組(男) 325 22 5018 伍朗維 NG LONG WAI  01:01:16 
10公里學生甲組(男) 329 23 5054 鍾紹圖 CHUNG SIU TO   01:01:24 
10公里學生甲組(男) 359 24 5030 黃尊航 WONG CHUEN HONG  01:03:18 
10公里學生甲組(男) 361 25 5004 劉子誠 Lau Tsz Shing  01:03:20 
10公里學生甲組(男) 379 26 5031 張頌謙 CHEUNG CHUNG HIM  01:04:06 
10公里學生甲組(男) 411 27 5027 陳嘉浩 CHAN KA HO  01:07:34 
10公里學生甲組(男) 423 28 5040 黃梓灝 WONG TSZ HO  01:09:13 
10公里學生甲組(男) 450 29 5036 譚文皓 TAM MAN HO  01:11:49 
10公里學生甲組(男) 452 30 5038 陳浩賢 CHAN HO YIN  01:12:02 
10公里學生甲組(男) 459 31 5020 張永源 CHEUNG WING YUEN  01:12:32 
10公里學生甲組(男) 466 32 5033 莊振中 CHONG CHUN CHUNG  01:13:07 
10公里學生甲組(男) 479 33 5034 馮展峰 FUNG CHIN FUNG  01:14:21 
10公里學生甲組(男) 480 34 5037 黃家謙 WONG KA HIM  01:14:25 
10公里學生甲組(男) 485 35 5051 符皓鈞 FU HO KWAN OSCAR  01:14:54 
10公里學生甲組(男) 494 36 5042 胡駿諾 WOO CHUN NOK  01:16:30 
10公里學生甲組(男) 495 37 5032 黃樂賢 WONG LOK YIN LOUIS  01:16:31 
10公里學生甲組(男) 503 38 5008 林小虎 Lam Siu Fu  01:17:14 
10公里學生甲組(男) 534 39 5026 杜桐軒 TOA TUNG HIN  01:21:16 
10公里學生甲組(男) 548 40 5050 張聖軒 CHEUNG SHING HIN   01:23:56 
10公里學生甲組(男) 550 41 5053 陳敏德 CHAN MAN TAK   01:25:08 
10公里學生甲組(男) 553 42 5022 薛鋌冬 SIT TING TUNG OSCAR  01:25:56 
10公里學生甲組(男) 554 43 5029 馮遠蕎 FUNG YUEN KIU  01:25:57 
10公里學生甲組(男) 574 44 5023 孫永延 SUEN WING YIN  01:29:34 
10公里學生甲組(男) 575 45 5024 鄧沛霖 TANG PUI LAM  01:29:51 
10公里學生甲組(男) 576 46 5025 彭智斌 PANG CHI PAN  01:31:43